createdAt,value
2019-04-23T00:15:30.738Z,23.30
2019-04-23T00:25:51.029Z,23.60
2019-04-23T00:45:44.569Z,24.10
2019-04-23T00:55:52.745Z,24.30
2019-04-23T01:05:54.882Z,24.60
2019-04-23T01:15:59.582Z,24.80
2019-04-23T01:25:50.109Z,24.80
2019-04-23T01:36:25.329Z,25.20
2019-04-23T01:46:36.043Z,25.30
2019-04-23T01:56:35.214Z,25.40
2019-04-23T02:06:41.504Z,25.70
2019-04-23T02:16:42.217Z,25.90
2019-04-23T02:26:50.770Z,26.20
2019-04-23T02:37:35.259Z,26.30
2019-04-23T03:07:16.013Z,27.10
2019-04-23T03:17:10.746Z,27.50
2019-04-23T03:27:21.587Z,28.40
2019-04-23T03:47:34.148Z,29.80
2019-04-23T03:57:38.026Z,30.50
2019-04-23T04:07:47.323Z,31.40
2019-04-23T04:17:40.072Z,31.80
2019-04-23T04:27:54.496Z,32.40
2019-04-23T04:37:51.398Z,32.60
2019-04-23T04:58:04.013Z,33.00
2019-04-23T05:07:56.267Z,33.30
2019-04-23T05:18:08.132Z,33.30
2019-04-23T05:48:13.360Z,33.30
2019-04-23T05:58:19.912Z,32.80
2019-04-23T06:08:28.506Z,32.80
2019-04-23T06:18:40.814Z,32.40
2019-04-23T06:28:28.964Z,32.00
2019-04-23T06:48:35.500Z,31.60
2019-04-23T06:58:40.307Z,30.90
2019-04-23T07:09:05.721Z,31.00
2019-04-23T07:18:48.956Z,31.10
2019-04-23T07:28:54.634Z,31.10
2019-04-23T07:48:56.510Z,31.10
2019-04-23T07:59:07.303Z,30.90
2019-04-23T08:09:06.183Z,30.80
2019-04-23T08:19:05.580Z,29.90
2019-04-23T08:29:15.396Z,29.10
2019-04-23T08:39:17.941Z,28.60
2019-04-23T08:49:34.168Z,28.20
2019-04-23T08:59:34.790Z,28.00
2019-04-23T09:09:34.844Z,27.40
2019-04-23T09:19:51.850Z,27.10
2019-04-23T09:29:47.647Z,26.90
2019-04-23T09:49:47.332Z,27.10
2019-04-23T09:59:49.776Z,26.60
2019-04-23T10:09:30.074Z,26.40
2019-04-23T10:19:32.886Z,26.30
2019-04-23T10:29:36.360Z,26.40
2019-04-23T10:39:42.745Z,26.50
2019-04-23T10:50:17.311Z,26.00
2019-04-23T11:00:22.331Z,26.00
2019-04-23T11:10:16.125Z,25.70
2019-04-23T11:20:30.668Z,25.30
2019-04-23T11:40:25.237Z,24.00
2019-04-23T11:51:05.138Z,23.30
2019-04-23T12:00:49.190Z,22.10
2019-04-23T12:10:47.936Z,20.60
2019-04-23T12:20:39.872Z,19.70
2019-04-23T12:30:50.166Z,19.00
2019-04-23T12:50:58.785Z,16.10
2019-04-23T13:00:58.728Z,13.80
2019-04-23T13:11:10.135Z,12.60
2019-04-23T13:21:36.350Z,12.40
2019-04-23T13:31:10.568Z,12.20
2019-04-23T14:11:30.830Z,11.50
2019-04-23T14:21:40.084Z,10.50
2019-04-23T14:31:36.809Z,8.80
2019-04-23T14:41:44.434Z,6.20
2019-04-23T15:01:49.751Z,4.50
2019-04-23T15:12:02.143Z,3.10
2019-04-23T15:22:08.363Z,5.20
2019-04-23T15:32:03.186Z,9.20
2019-04-23T15:42:12.162Z,11.60
2019-04-23T15:52:33.345Z,13.90
2019-04-23T16:01:45.425Z,15.60
2019-04-23T16:12:14.969Z,16.70
2019-04-23T16:32:31.505Z,18.50
2019-04-23T16:52:27.800Z,20.30
2019-04-23T17:02:34.231Z,20.70
2019-04-23T17:12:38.370Z,21.20
2019-04-23T17:32:45.253Z,22.40
2019-04-23T17:42:49.094Z,23.10
2019-04-23T17:52:59.168Z,23.70
2019-04-23T18:23:18.347Z,25.20
2019-04-23T18:43:24.066Z,26.20
2019-04-23T18:53:26.812Z,26.60
2019-04-23T19:03:29.440Z,27.20
2019-04-23T19:13:28.331Z,27.60
2019-04-23T19:43:41.829Z,28.90
2019-04-23T19:53:57.697Z,29.40
2019-04-23T20:03:49.660Z,30.40
2019-04-23T20:24:04.001Z,30.00
2019-04-23T20:34:14.157Z,31.20
2019-04-23T20:44:04.395Z,30.50
2019-04-23T21:04:28.183Z,31.10
2019-04-23T21:14:30.082Z,31.30
2019-04-23T21:24:14.597Z,31.80
2019-04-23T21:34:28.798Z,32.20
2019-04-23T21:44:18.559Z,32.50
2019-04-23T21:54:34.624Z,32.70
2019-04-23T22:14:40.127Z,33.20
2019-04-23T22:24:43.171Z,33.50
2019-04-23T22:34:48.288Z,33.80
2019-04-23T22:44:59.104Z,34.20
2019-04-23T22:54:59.298Z,34.60
2019-04-23T23:05:07.310Z,35.00
2019-04-23T23:15:11.361Z,35.30
2019-04-23T23:25:11.459Z,35.40
2019-04-23T23:35:23.683Z,35.60
2019-04-23T23:45:18.414Z,35.80
